sensor_id;sensor_type;location;lat;lon;timestamp;P1;durP1;ratioP1;P2;durP2;ratioP2
7316;SDS011;3699;51.462;6.696;2022-12-31T00:00:38;2.07;;;1.90;;
7316;SDS011;3699;51.462;6.696;2022-12-31T00:03:06;1.90;;;1.80;;
7316;SDS011;3699;51.462;6.696;2022-12-31T00:05:34;2.73;;;2.20;;
7316;SDS011;3699;51.462;6.696;2022-12-31T00:08:02;2.17;;;1.97;;
7316;SDS011;3699;51.462;6.696;2022-12-31T00:10:29;1.80;;;1.40;;
7316;SDS011;3699;51.462;6.696;2022-12-31T00:12:58;1.60;;;1.50;;
7316;SDS011;3699;51.462;6.696;2022-12-31T00:15:24;1.63;;;1.53;;
7316;SDS011;3699;51.462;6.696;2022-12-31T00:17:51;2.50;;;2.30;;
7316;SDS011;3699;51.462;6.696;2022-12-31T00:20:19;1.53;;;1.43;;
7316;SDS011;3699;51.462;6.696;2022-12-31T00:22:46;1.40;;;1.33;;
7316;SDS011;3699;51.462;6.696;2022-12-31T00:25:12;2.53;;;2.00;;
7316;SDS011;3699;51.462;6.696;2022-12-31T00:27:39;3.50;;;3.20;;
7316;SDS011;3699;51.462;6.696;2022-12-31T00:30:07;2.30;;;2.20;;
7316;SDS011;3699;51.462;6.696;2022-12-31T00:32:34;4.73;;;2.70;;
7316;SDS011;3699;51.462;6.696;2022-12-31T00:35:01;3.10;;;1.50;;
7316;SDS011;3699;51.462;6.696;2022-12-31T00:37:29;4.37;;;1.63;;
7316;SDS011;3699;51.462;6.696;2022-12-31T00:39:55;3.03;;;1.83;;
7316;SDS011;3699;51.462;6.696;2022-12-31T00:42:22;2.10;;;1.40;;
7316;SDS011;3699;51.462;6.696;2022-12-31T00:44:49;1.60;;;1.50;;
7316;SDS011;3699;51.462;6.696;2022-12-31T00:47:16;8.10;;;1.97;;
7316;SDS011;3699;51.462;6.696;2022-12-31T00:49:42;1.53;;;1.43;;
7316;SDS011;3699;51.462;6.696;2022-12-31T00:52:09;1.37;;;1.30;;
7316;SDS011;3699;51.462;6.696;2022-12-31T00:54:39;2.60;;;1.43;;
7316;SDS011;3699;51.462;6.696;2022-12-31T00:57:05;3.77;;;1.30;;
7316;SDS011;3699;51.462;6.696;2022-12-31T00:59:32;1.50;;;1.40;;
7316;SDS011;3699;51.462;6.696;2022-12-31T01:01:59;6.93;;;1.43;;
7316;SDS011;3699;51.462;6.696;2022-12-31T01:04:26;1.33;;;1.23;;
7316;SDS011;3699;51.462;6.696;2022-12-31T01:06:52;1.40;;;1.30;;
7316;SDS011;3699;51.462;6.696;2022-12-31T01:09:19;1.33;;;1.23;;
7316;SDS011;3699;51.462;6.696;2022-12-31T01:11:48;1.40;;;1.30;;
7316;SDS011;3699;51.462;6.696;2022-12-31T01:14:16;1.80;;;1.53;;
7316;SDS011;3699;51.462;6.696;2022-12-31T01:16:45;1.93;;;1.70;;
7316;SDS011;3699;51.462;6.696;2022-12-31T01:19:14;2.17;;;1.90;;
7316;SDS011;3699;51.462;6.696;2022-12-31T01:21:43;2.30;;;2.10;;
7316;SDS011;3699;51.462;6.696;2022-12-31T01:24:10;2.00;;;1.90;;
7316;SDS011;3699;51.462;6.696;2022-12-31T01:26:38;2.27;;;1.90;;
7316;SDS011;3699;51.462;6.696;2022-12-31T01:29:06;3.33;;;1.87;;
7316;SDS011;3699;51.462;6.696;2022-12-31T01:31:34;2.27;;;2.07;;
7316;SDS011;3699;51.462;6.696;2022-12-31T01:34:01;2.30;;;1.20;;
7316;SDS011;3699;51.462;6.696;2022-12-31T01:36:29;2.73;;;1.40;;
7316;SDS011;3699;51.462;6.696;2022-12-31T01:38:58;1.50;;;1.40;;
7316;SDS011;3699;51.462;6.696;2022-12-31T01:41:27;1.23;;;1.20;;
7316;SDS011;3699;51.462;6.696;2022-12-31T01:43:56;1.10;;;0.80;;
7316;SDS011;3699;51.462;6.696;2022-12-31T01:46:28;0.97;;;0.97;;
7316;SDS011;3699;51.462;6.696;2022-12-31T01:49:01;2.33;;;0.73;;
7316;SDS011;3699;51.462;6.696;2022-12-31T01:51:32;1.43;;;0.80;;
7316;SDS011;3699;51.462;6.696;2022-12-31T01:54:00;0.60;;;0.60;;
7316;SDS011;3699;51.462;6.696;2022-12-31T01:56:28;0.60;;;0.60;;
7316;SDS011;3699;51.462;6.696;2022-12-31T01:58:55;1.03;;;1.03;;
7316;SDS011;3699;51.462;6.696;2022-12-31T02:01:24;1.60;;;0.70;;
7316;SDS011;3699;51.462;6.696;2022-12-31T02:03:55;0.60;;;0.60;;
7316;SDS011;3699;51.462;6.696;2022-12-31T02:06:23;0.97;;;0.70;;
7316;SDS011;3699;51.462;6.696;2022-12-31T02:08:54;0.60;;;0.60;;
7316;SDS011;3699;51.462;6.696;2022-12-31T02:11:22;0.50;;;0.50;;
7316;SDS011;3699;51.462;6.696;2022-12-31T02:13:51;0.60;;;0.60;;
7316;SDS011;3699;51.462;6.696;2022-12-31T02:16:21;0.50;;;0.50;;
7316;SDS011;3699;51.462;6.696;2022-12-31T02:18:56;0.60;;;0.60;;
7316;SDS011;3699;51.462;6.696;2022-12-31T02:21:30;0.83;;;0.53;;
7316;SDS011;3699;51.462;6.696;2022-12-31T02:27:19;1.07;;;0.70;;
7316;SDS011;3699;51.462;6.696;2022-12-31T02:29:59;2.20;;;0.63;;
7316;SDS011;3699;51.462;6.696;2022-12-31T02:32:34;0.60;;;0.60;;
7316;SDS011;3699;51.462;6.696;2022-12-31T02:35:21;0.60;;;0.60;;
7316;SDS011;3699;51.462;6.696;2022-12-31T02:37:56;0.60;;;0.60;;
7316;SDS011;3699;51.462;6.696;2022-12-31T02:40:26;0.60;;;0.50;;
7316;SDS011;3699;51.462;6.696;2022-12-31T02:42:53;0.60;;;0.60;;
7316;SDS011;3699;51.462;6.696;2022-12-31T02:45:23;0.50;;;0.50;;
7316;SDS011;3699;51.462;6.696;2022-12-31T02:47:58;0.50;;;0.50;;
7316;SDS011;3699;51.462;6.696;2022-12-31T02:50:35;0.70;;;0.70;;
7316;SDS011;3699;51.462;6.696;2022-12-31T02:53:20;3.80;;;0.60;;
7316;SDS011;3699;51.462;6.696;2022-12-31T02:56:00;0.30;;;0.30;;
7316;SDS011;3699;51.462;6.696;2022-12-31T02:58:35;0.60;;;0.53;;
7316;SDS011;3699;51.462;6.696;2022-12-31T03:01:29;0.40;;;0.40;;
7316;SDS011;3699;51.462;6.696;2022-12-31T03:04:17;0.53;;;0.53;;
7316;SDS011;3699;51.462;6.696;2022-12-31T03:06:58;0.60;;;0.60;;
7316;SDS011;3699;51.462;6.696;2022-12-31T03:09:27;1.23;;;0.70;;
7316;SDS011;3699;51.462;6.696;2022-12-31T03:11:54;0.50;;;0.50;;
7316;SDS011;3699;51.462;6.696;2022-12-31T03:14:38;2.33;;;1.00;;
7316;SDS011;3699;51.462;6.696;2022-12-31T03:17:06;0.50;;;0.50;;
7316;SDS011;3699;51.462;6.696;2022-12-31T03:19:33;1.93;;;1.20;;
7316;SDS011;3699;51.462;6.696;2022-12-31T03:22:17;0.67;;;0.67;;
7316;SDS011;3699;51.462;6.696;2022-12-31T03:24:53;1.13;;;0.93;;
7316;SDS011;3699;51.462;6.696;2022-12-31T03:27:38;0.67;;;0.67;;
7316;SDS011;3699;51.462;6.696;2022-12-31T03:30:05;0.70;;;0.60;;
7316;SDS011;3699;51.462;6.696;2022-12-31T03:32:34;3.37;;;0.90;;
7316;SDS011;3699;51.462;6.696;2022-12-31T03:35:01;0.67;;;0.67;;
7316;SDS011;3699;51.462;6.696;2022-12-31T03:37:28;1.60;;;0.70;;
7316;SDS011;3699;51.462;6.696;2022-12-31T03:39:55;0.67;;;0.67;;
7316;SDS011;3699;51.462;6.696;2022-12-31T03:42:22;0.83;;;0.67;;
7316;SDS011;3699;51.462;6.696;2022-12-31T03:44:48;0.83;;;0.83;;
7316;SDS011;3699;51.462;6.696;2022-12-31T03:47:15;0.60;;;0.60;;
7316;SDS011;3699;51.462;6.696;2022-12-31T03:49:43;1.80;;;0.50;;
7316;SDS011;3699;51.462;6.696;2022-12-31T03:52:10;1.83;;;0.80;;
7316;SDS011;3699;51.462;6.696;2022-12-31T03:54:36;1.07;;;0.70;;
7316;SDS011;3699;51.462;6.696;2022-12-31T03:57:03;0.63;;;0.63;;
7316;SDS011;3699;51.462;6.696;2022-12-31T03:59:30;1.50;;;0.80;;
7316;SDS011;3699;51.462;6.696;2022-12-31T04:01:57;0.57;;;0.57;;
7316;SDS011;3699;51.462;6.696;2022-12-31T04:04:23;1.23;;;0.87;;
7316;SDS011;3699;51.462;6.696;2022-12-31T04:06:51;0.70;;;0.70;;
7316;SDS011;3699;51.462;6.696;2022-12-31T04:09:18;1.40;;;0.80;;
7316;SDS011;3699;51.462;6.696;2022-12-31T04:11:45;1.13;;;0.70;;
7316;SDS011;3699;51.462;6.696;2022-12-31T04:14:12;0.93;;;0.93;;
7316;SDS011;3699;51.462;6.696;2022-12-31T04:16:40;1.03;;;0.83;;
7316;SDS011;3699;51.462;6.696;2022-12-31T04:19:07;0.80;;;0.80;;
7316;SDS011;3699;51.462;6.696;2022-12-31T04:21:33;0.83;;;0.83;;
7316;SDS011;3699;51.462;6.696;2022-12-31T04:24:02;1.00;;;1.00;;
7316;SDS011;3699;51.462;6.696;2022-12-31T04:26:29;1.00;;;0.90;;
7316;SDS011;3699;51.462;6.696;2022-12-31T04:28:56;2.40;;;0.97;;
7316;SDS011;3699;51.462;6.696;2022-12-31T04:31:23;1.10;;;0.80;;
7316;SDS011;3699;51.462;6.696;2022-12-31T04:33:49;0.87;;;0.70;;
7316;SDS011;3699;51.462;6.696;2022-12-31T04:36:16;1.57;;;0.93;;
7316;SDS011;3699;51.462;6.696;2022-12-31T04:38:43;2.23;;;1.03;;
7316;SDS011;3699;51.462;6.696;2022-12-31T04:41:11;2.10;;;1.47;;
7316;SDS011;3699;51.462;6.696;2022-12-31T04:43:45;5.17;;;0.90;;
7316;SDS011;3699;51.462;6.696;2022-12-31T04:46:13;1.70;;;1.00;;
7316;SDS011;3699;51.462;6.696;2022-12-31T04:48:41;1.50;;;0.80;;
7316;SDS011;3699;51.462;6.696;2022-12-31T04:51:08;1.43;;;1.37;;
7316;SDS011;3699;51.462;6.696;2022-12-31T04:53:36;0.97;;;0.50;;
7316;SDS011;3699;51.462;6.696;2022-12-31T04:56:03;1.57;;;1.00;;
7316;SDS011;3699;51.462;6.696;2022-12-31T04:58:33;7.07;;;2.20;;
7316;SDS011;3699;51.462;6.696;2022-12-31T05:01:00;1.67;;;1.13;;
7316;SDS011;3699;51.462;6.696;2022-12-31T05:03:27;1.60;;;0.80;;
7316;SDS011;3699;51.462;6.696;2022-12-31T05:05:58;2.43;;;0.87;;
7316;SDS011;3699;51.462;6.696;2022-12-31T05:08:26;2.73;;;0.80;;
7316;SDS011;3699;51.462;6.696;2022-12-31T05:10:53;0.80;;;0.80;;
7316;SDS011;3699;51.462;6.696;2022-12-31T05:13:20;0.70;;;0.70;;
7316;SDS011;3699;51.462;6.696;2022-12-31T05:15:48;1.90;;;1.07;;
7316;SDS011;3699;51.462;6.696;2022-12-31T05:18:15;2.30;;;0.90;;
7316;SDS011;3699;51.462;6.696;2022-12-31T05:20:42;1.33;;;1.23;;
7316;SDS011;3699;51.462;6.696;2022-12-31T05:23:10;0.80;;;0.80;;
7316;SDS011;3699;51.462;6.696;2022-12-31T05:25:37;4.00;;;1.20;;
7316;SDS011;3699;51.462;6.696;2022-12-31T05:28:03;2.03;;;1.00;;
7316;SDS011;3699;51.462;6.696;2022-12-31T05:30:30;1.23;;;0.90;;
7316;SDS011;3699;51.462;6.696;2022-12-31T05:32:58;0.80;;;0.80;;
7316;SDS011;3699;51.462;6.696;2022-12-31T05:35:25;0.80;;;0.80;;
7316;SDS011;3699;51.462;6.696;2022-12-31T05:37:52;1.97;;;0.83;;
7316;SDS011;3699;51.462;6.696;2022-12-31T05:40:19;0.60;;;0.60;;
7316;SDS011;3699;51.462;6.696;2022-12-31T05:42:46;4.33;;;1.13;;
7316;SDS011;3699;51.462;6.696;2022-12-31T05:45:14;2.90;;;1.00;;
7316;SDS011;3699;51.462;6.696;2022-12-31T05:47:42;3.30;;;1.10;;
7316;SDS011;3699;51.462;6.696;2022-12-31T05:50:11;4.47;;;0.93;;
7316;SDS011;3699;51.462;6.696;2022-12-31T05:52:40;1.03;;;0.80;;
7316;SDS011;3699;51.462;6.696;2022-12-31T05:55:07;2.10;;;0.80;;
7316;SDS011;3699;51.462;6.696;2022-12-31T05:57:35;0.90;;;0.90;;
7316;SDS011;3699;51.462;6.696;2022-12-31T06:00:02;1.60;;;1.03;;
7316;SDS011;3699;51.462;6.696;2022-12-31T06:02:30;0.97;;;0.90;;
7316;SDS011;3699;51.462;6.696;2022-12-31T06:04:57;0.83;;;0.80;;
7316;SDS011;3699;51.462;6.696;2022-12-31T06:07:25;2.87;;;0.77;;
7316;SDS011;3699;51.462;6.696;2022-12-31T06:09:52;3.00;;;0.90;;
7316;SDS011;3699;51.462;6.696;2022-12-31T06:12:18;3.20;;;0.90;;
7316;SDS011;3699;51.462;6.696;2022-12-31T06:14:45;2.53;;;1.10;;
7316;SDS011;3699;51.462;6.696;2022-12-31T06:17:12;1.97;;;1.73;;
7316;SDS011;3699;51.462;6.696;2022-12-31T06:19:38;2.63;;;1.83;;
7316;SDS011;3699;51.462;6.696;2022-12-31T06:22:05;3.17;;;1.27;;
7316;SDS011;3699;51.462;6.696;2022-12-31T06:24:33;2.83;;;1.10;;
7316;SDS011;3699;51.462;6.696;2022-12-31T06:27:00;3.60;;;1.47;;
7316;SDS011;3699;51.462;6.696;2022-12-31T06:29:27;0.97;;;0.80;;
7316;SDS011;3699;51.462;6.696;2022-12-31T06:31:53;1.30;;;1.20;;
7316;SDS011;3699;51.462;6.696;2022-12-31T06:34:20;2.77;;;1.20;;
7316;SDS011;3699;51.462;6.696;2022-12-31T06:36:47;2.53;;;1.00;;
7316;SDS011;3699;51.462;6.696;2022-12-31T06:39:13;1.23;;;0.80;;
7316;SDS011;3699;51.462;6.696;2022-12-31T06:41:41;2.40;;;1.03;;
7316;SDS011;3699;51.462;6.696;2022-12-31T06:44:08;3.37;;;1.10;;
7316;SDS011;3699;51.462;6.696;2022-12-31T06:46:35;1.37;;;1.00;;
7316;SDS011;3699;51.462;6.696;2022-12-31T06:49:02;1.13;;;0.93;;
7316;SDS011;3699;51.462;6.696;2022-12-31T06:51:28;1.20;;;1.10;;
7316;SDS011;3699;51.462;6.696;2022-12-31T06:53:55;1.33;;;1.07;;
7316;SDS011;3699;51.462;6.696;2022-12-31T06:56:23;3.00;;;1.10;;
7316;SDS011;3699;51.462;6.696;2022-12-31T06:58:54;1.30;;;0.97;;
7316;SDS011;3699;51.462;6.696;2022-12-31T07:01:29;1.53;;;1.10;;
7316;SDS011;3699;51.462;6.696;2022-12-31T07:04:19;2.83;;;1.00;;
7316;SDS011;3699;51.462;6.696;2022-12-31T07:06:57;2.90;;;1.30;;
7316;SDS011;3699;51.462;6.696;2022-12-31T07:09:31;1.87;;;1.30;;
7316;SDS011;3699;51.462;6.696;2022-12-31T07:12:05;3.40;;;0.93;;
7316;SDS011;3699;51.462;6.696;2022-12-31T07:14:43;5.27;;;1.87;;
7316;SDS011;3699;51.462;6.696;2022-12-31T07:17:16;2.43;;;1.10;;
7316;SDS011;3699;51.462;6.696;2022-12-31T07:19:53;1.20;;;0.80;;
7316;SDS011;3699;51.462;6.696;2022-12-31T07:22:24;2.97;;;1.00;;
7316;SDS011;3699;51.462;6.696;2022-12-31T07:24:51;5.33;;;2.17;;
7316;SDS011;3699;51.462;6.696;2022-12-31T07:27:24;1.23;;;1.13;;
7316;SDS011;3699;51.462;6.696;2022-12-31T07:30:03;2.13;;;1.30;;
7316;SDS011;3699;51.462;6.696;2022-12-31T07:32:38;1.67;;;1.20;;
7316;SDS011;3699;51.462;6.696;2022-12-31T07:35:20;3.13;;;1.30;;
7316;SDS011;3699;51.462;6.696;2022-12-31T07:37:53;4.20;;;1.60;;
7316;SDS011;3699;51.462;6.696;2022-12-31T07:40:29;1.47;;;1.00;;
7316;SDS011;3699;51.462;6.696;2022-12-31T07:43:04;2.57;;;1.10;;
7316;SDS011;3699;51.462;6.696;2022-12-31T07:45:40;1.20;;;1.10;;
7316;SDS011;3699;51.462;6.696;2022-12-31T07:48:16;1.20;;;1.10;;
7316;SDS011;3699;51.462;6.696;2022-12-31T07:50:48;2.30;;;1.10;;
7316;SDS011;3699;51.462;6.696;2022-12-31T07:53:15;2.47;;;1.30;;
7316;SDS011;3699;51.462;6.696;2022-12-31T07:55:42;3.83;;;1.40;;
7316;SDS011;3699;51.462;6.696;2022-12-31T07:58:13;2.57;;;1.33;;
7316;SDS011;3699;51.462;6.696;2022-12-31T08:00:46;5.13;;;1.20;;
7316;SDS011;3699;51.462;6.696;2022-12-31T08:03:16;1.30;;;1.20;;
7316;SDS011;3699;51.462;6.696;2022-12-31T08:06:01;1.83;;;1.50;;
7316;SDS011;3699;51.462;6.696;2022-12-31T08:08:41;1.23;;;1.13;;
7316;SDS011;3699;51.462;6.696;2022-12-31T08:11:17;3.70;;;1.33;;
7316;SDS011;3699;51.462;6.696;2022-12-31T08:13:49;3.07;;;1.00;;
7316;SDS011;3699;51.462;6.696;2022-12-31T08:16:21;4.43;;;1.50;;
7316;SDS011;3699;51.462;6.696;2022-12-31T08:18:49;4.63;;;1.77;;
7316;SDS011;3699;51.462;6.696;2022-12-31T08:21:19;1.93;;;1.20;;
7316;SDS011;3699;51.462;6.696;2022-12-31T08:23:53;1.27;;;1.00;;
7316;SDS011;3699;51.462;6.696;2022-12-31T08:26:26;6.07;;;1.40;;
7316;SDS011;3699;51.462;6.696;2022-12-31T08:29:04;2.87;;;1.37;;
7316;SDS011;3699;51.462;6.696;2022-12-31T08:31:43;3.90;;;1.30;;
7316;SDS011;3699;51.462;6.696;2022-12-31T08:34:16;2.00;;;1.10;;
7316;SDS011;3699;51.462;6.696;2022-12-31T08:36:51;1.30;;;1.20;;
7316;SDS011;3699;51.462;6.696;2022-12-31T08:39:24;4.27;;;1.20;;
7316;SDS011;3699;51.462;6.696;2022-12-31T08:42:00;4.23;;;1.20;;
7316;SDS011;3699;51.462;6.696;2022-12-31T08:44:35;3.20;;;1.40;;
7316;SDS011;3699;51.462;6.696;2022-12-31T08:47:15;2.80;;;1.50;;
7316;SDS011;3699;51.462;6.696;2022-12-31T08:49:50;1.07;;;0.97;;
7316;SDS011;3699;51.462;6.696;2022-12-31T08:52:19;2.80;;;1.20;;
7316;SDS011;3699;51.462;6.696;2022-12-31T08:54:48;4.70;;;1.20;;
7316;SDS011;3699;51.462;6.696;2022-12-31T08:57:17;4.27;;;1.50;;
7316;SDS011;3699;51.462;6.696;2022-12-31T08:59:52;4.37;;;1.20;;
7316;SDS011;3699;51.462;6.696;2022-12-31T09:02:33;4.37;;;1.40;;
7316;SDS011;3699;51.462;6.696;2022-12-31T09:05:13;3.57;;;1.47;;
7316;SDS011;3699;51.462;6.696;2022-12-31T09:07:46;42.60;;;4.47;;
7316;SDS011;3699;51.462;6.696;2022-12-31T09:10:22;10.03;;;1.63;;
7316;SDS011;3699;51.462;6.696;2022-12-31T09:12:56;4.27;;;1.60;;
7316;SDS011;3699;51.462;6.696;2022-12-31T09:15:35;10.97;;;2.37;;
7316;SDS011;3699;51.462;6.696;2022-12-31T09:18:07;2.23;;;1.13;;
7316;SDS011;3699;51.462;6.696;2022-12-31T09:20:36;2.80;;;1.40;;
7316;SDS011;3699;51.462;6.696;2022-12-31T09:23:04;5.70;;;1.63;;
7316;SDS011;3699;51.462;6.696;2022-12-31T09:25:31;5.23;;;2.23;;
7316;SDS011;3699;51.462;6.696;2022-12-31T09:28:06;6.00;;;2.23;;
7316;SDS011;3699;51.462;6.696;2022-12-31T09:30:40;2.37;;;1.23;;
7316;SDS011;3699;51.462;6.696;2022-12-31T09:33:15;1.43;;;1.33;;
7316;SDS011;3699;51.462;6.696;2022-12-31T09:35:56;2.23;;;1.67;;
7316;SDS011;3699;51.462;6.696;2022-12-31T09:38:29;3.17;;;1.10;;
7316;SDS011;3699;51.462;6.696;2022-12-31T09:41:11;3.10;;;1.57;;
7316;SDS011;3699;51.462;6.696;2022-12-31T09:53:17;4.17;;;1.47;;
7316;SDS011;3699;51.462;6.696;2022-12-31T09:55:55;2.00;;;1.67;;
7316;SDS011;3699;51.462;6.696;2022-12-31T09:58:31;6.77;;;1.60;;
7316;SDS011;3699;51.462;6.696;2022-12-31T10:01:09;4.17;;;1.63;;
7316;SDS011;3699;51.462;6.696;2022-12-31T10:03:53;4.33;;;1.40;;
7316;SDS011;3699;51.462;6.696;2022-12-31T10:06:32;5.97;;;1.40;;
7316;SDS011;3699;51.462;6.696;2022-12-31T10:09:10;5.00;;;1.50;;
7316;SDS011;3699;51.462;6.696;2022-12-31T10:14:52;1.77;;;1.43;;
7316;SDS011;3699;51.462;6.696;2022-12-31T10:17:36;4.17;;;1.60;;
7316;SDS011;3699;51.462;6.696;2022-12-31T10:20:19;4.33;;;1.43;;
7316;SDS011;3699;51.462;6.696;2022-12-31T10:23:02;6.57;;;1.70;;
7316;SDS011;3699;51.462;6.696;2022-12-31T10:25:54;3.67;;;1.23;;
7316;SDS011;3699;51.462;6.696;2022-12-31T10:28:39;1.87;;;1.30;;
7316;SDS011;3699;51.462;6.696;2022-12-31T10:31:15;2.27;;;1.90;;
7316;SDS011;3699;51.462;6.696;2022-12-31T10:33:50;5.53;;;1.53;;
7316;SDS011;3699;51.462;6.696;2022-12-31T10:36:29;3.93;;;1.50;;
7316;SDS011;3699;51.462;6.696;2022-12-31T10:39:04;3.43;;;1.80;;
7316;SDS011;3699;51.462;6.696;2022-12-31T10:41:51;2.43;;;1.40;;
7316;SDS011;3699;51.462;6.696;2022-12-31T10:50:55;3.23;;;1.60;;
7316;SDS011;3699;51.462;6.696;2022-12-31T10:57:03;4.20;;;2.33;;
7316;SDS011;3699;51.462;6.696;2022-12-31T11:00:01;6.03;;;2.17;;
7316;SDS011;3699;51.462;6.696;2022-12-31T11:12:06;5.07;;;1.70;;
7316;SDS011;3699;51.462;6.696;2022-12-31T11:14:46;5.13;;;1.80;;
7316;SDS011;3699;51.462;6.696;2022-12-31T11:17:30;3.83;;;1.97;;
7316;SDS011;3699;51.462;6.696;2022-12-31T11:23:04;3.53;;;1.67;;
7316;SDS011;3699;51.462;6.696;2022-12-31T11:25:46;3.27;;;1.70;;
7316;SDS011;3699;51.462;6.696;2022-12-31T11:28:38;6.33;;;2.43;;
7316;SDS011;3699;51.462;6.696;2022-12-31T11:34:16;3.90;;;1.83;;
7316;SDS011;3699;51.462;6.696;2022-12-31T11:36:55;3.87;;;1.40;;
7316;SDS011;3699;51.462;6.696;2022-12-31T11:39:38;6.57;;;1.87;;
7316;SDS011;3699;51.462;6.696;2022-12-31T11:42:15;3.53;;;1.60;;
7316;SDS011;3699;51.462;6.696;2022-12-31T11:44:48;1.50;;;1.40;;
7316;SDS011;3699;51.462;6.696;2022-12-31T11:47:22;4.50;;;1.60;;
7316;SDS011;3699;51.462;6.696;2022-12-31T11:50:12;6.00;;;1.80;;
7316;SDS011;3699;51.462;6.696;2022-12-31T11:52:53;3.97;;;1.60;;
7316;SDS011;3699;51.462;6.696;2022-12-31T11:55:32;25.77;;;3.23;;
7316;SDS011;3699;51.462;6.696;2022-12-31T11:58:10;2.80;;;1.30;;
7316;SDS011;3699;51.462;6.696;2022-12-31T12:00:41;4.70;;;2.10;;
7316;SDS011;3699;51.462;6.696;2022-12-31T12:03:14;7.73;;;2.03;;
7316;SDS011;3699;51.462;6.696;2022-12-31T12:05:41;6.10;;;1.80;;
7316;SDS011;3699;51.462;6.696;2022-12-31T12:08:07;3.83;;;1.60;;
7316;SDS011;3699;51.462;6.696;2022-12-31T12:10:37;4.77;;;1.50;;
7316;SDS011;3699;51.462;6.696;2022-12-31T12:13:11;5.23;;;1.93;;
7316;SDS011;3699;51.462;6.696;2022-12-31T12:15:43;3.90;;;1.73;;
7316;SDS011;3699;51.462;6.696;2022-12-31T12:18:17;3.03;;;1.50;;
7316;SDS011;3699;51.462;6.696;2022-12-31T12:20:59;3.63;;;1.40;;
7316;SDS011;3699;51.462;6.696;2022-12-31T12:23:28;4.50;;;1.80;;
7316;SDS011;3699;51.462;6.696;2022-12-31T12:25:56;5.60;;;1.73;;
7316;SDS011;3699;51.462;6.696;2022-12-31T12:28:24;3.63;;;2.03;;
7316;SDS011;3699;51.462;6.696;2022-12-31T12:30:55;8.73;;;2.87;;
7316;SDS011;3699;51.462;6.696;2022-12-31T12:33:24;6.87;;;2.13;;
7316;SDS011;3699;51.462;6.696;2022-12-31T12:35:52;5.90;;;2.53;;
7316;SDS011;3699;51.462;6.696;2022-12-31T12:38:20;4.93;;;2.03;;
7316;SDS011;3699;51.462;6.696;2022-12-31T12:40:52;4.40;;;1.77;;
7316;SDS011;3699;51.462;6.696;2022-12-31T12:43:21;5.27;;;1.80;;
7316;SDS011;3699;51.462;6.696;2022-12-31T12:45:51;5.50;;;1.63;;
7316;SDS011;3699;51.462;6.696;2022-12-31T12:48:24;5.07;;;2.13;;
7316;SDS011;3699;51.462;6.696;2022-12-31T12:51:00;3.80;;;1.80;;
7316;SDS011;3699;51.462;6.696;2022-12-31T12:53:36;3.33;;;1.63;;
7316;SDS011;3699;51.462;6.696;2022-12-31T12:56:15;2.60;;;2.00;;
7316;SDS011;3699;51.462;6.696;2022-12-31T12:58:53;4.03;;;2.00;;
7316;SDS011;3699;51.462;6.696;2022-12-31T13:01:31;2.70;;;1.73;;
7316;SDS011;3699;51.462;6.696;2022-12-31T13:07:09;5.43;;;2.60;;
7316;SDS011;3699;51.462;6.696;2022-12-31T13:09:46;5.63;;;1.90;;
7316;SDS011;3699;51.462;6.696;2022-12-31T13:12:23;3.20;;;1.90;;
7316;SDS011;3699;51.462;6.696;2022-12-31T13:14:56;3.13;;;1.77;;
7316;SDS011;3699;51.462;6.696;2022-12-31T13:17:31;4.23;;;2.03;;
7316;SDS011;3699;51.462;6.696;2022-12-31T13:20:14;6.27;;;1.80;;
7316;SDS011;3699;51.462;6.696;2022-12-31T13:22:49;2.53;;;1.90;;
7316;SDS011;3699;51.462;6.696;2022-12-31T13:25:22;4.00;;;1.83;;
7316;SDS011;3699;51.462;6.696;2022-12-31T13:27:56;3.97;;;1.90;;
7316;SDS011;3699;51.462;6.696;2022-12-31T13:30:27;4.33;;;2.20;;
7316;SDS011;3699;51.462;6.696;2022-12-31T13:33:00;3.77;;;1.80;;
7316;SDS011;3699;51.462;6.696;2022-12-31T13:35:34;2.47;;;1.57;;
7316;SDS011;3699;51.462;6.696;2022-12-31T13:38:08;4.00;;;1.70;;
7316;SDS011;3699;51.462;6.696;2022-12-31T13:40:45;3.60;;;1.53;;
7316;SDS011;3699;51.462;6.696;2022-12-31T13:43:18;4.30;;;1.83;;
7316;SDS011;3699;51.462;6.696;2022-12-31T13:45:57;2.47;;;1.70;;
7316;SDS011;3699;51.462;6.696;2022-12-31T13:48:30;4.03;;;1.93;;
7316;SDS011;3699;51.462;6.696;2022-12-31T13:51:04;7.13;;;2.00;;
7316;SDS011;3699;51.462;6.696;2022-12-31T13:53:37;5.73;;;1.77;;
7316;SDS011;3699;51.462;6.696;2022-12-31T13:56:10;4.30;;;1.93;;
7316;SDS011;3699;51.462;6.696;2022-12-31T13:58:42;4.90;;;2.30;;
7316;SDS011;3699;51.462;6.696;2022-12-31T14:01:13;4.00;;;2.00;;
7316;SDS011;3699;51.462;6.696;2022-12-31T14:03:44;10.17;;;2.17;;
7316;SDS011;3699;51.462;6.696;2022-12-31T14:06:22;4.50;;;2.03;;
7316;SDS011;3699;51.462;6.696;2022-12-31T14:08:57;8.00;;;2.90;;
7316;SDS011;3699;51.462;6.696;2022-12-31T14:11:35;4.10;;;1.90;;
7316;SDS011;3699;51.462;6.696;2022-12-31T14:14:19;7.13;;;1.90;;
7316;SDS011;3699;51.462;6.696;2022-12-31T14:16:56;5.03;;;2.00;;
7316;SDS011;3699;51.462;6.696;2022-12-31T14:19:32;6.13;;;2.43;;
7316;SDS011;3699;51.462;6.696;2022-12-31T14:22:12;5.10;;;2.33;;
7316;SDS011;3699;51.462;6.696;2022-12-31T14:24:46;5.57;;;1.90;;
7316;SDS011;3699;51.462;6.696;2022-12-31T14:27:16;6.20;;;2.20;;
7316;SDS011;3699;51.462;6.696;2022-12-31T14:29:48;3.83;;;2.27;;
7316;SDS011;3699;51.462;6.696;2022-12-31T14:32:35;13.87;;;2.67;;
7316;SDS011;3699;51.462;6.696;2022-12-31T14:35:15;5.10;;;2.40;;
7316;SDS011;3699;51.462;6.696;2022-12-31T14:37:53;6.83;;;2.40;;
7316;SDS011;3699;51.462;6.696;2022-12-31T14:40:26;4.83;;;2.60;;
7316;SDS011;3699;51.462;6.696;2022-12-31T14:43:00;7.73;;;2.50;;
7316;SDS011;3699;51.462;6.696;2022-12-31T14:45:39;6.93;;;2.50;;
7316;SDS011;3699;51.462;6.696;2022-12-31T14:48:16;6.47;;;1.80;;
7316;SDS011;3699;51.462;6.696;2022-12-31T14:50:54;7.10;;;3.30;;
7316;SDS011;3699;51.462;6.696;2022-12-31T14:53:25;8.37;;;3.10;;
7316;SDS011;3699;51.462;6.696;2022-12-31T14:55:57;11.40;;;2.80;;
7316;SDS011;3699;51.462;6.696;2022-12-31T14:58:30;5.13;;;2.40;;
7316;SDS011;3699;51.462;6.696;2022-12-31T15:00:58;6.97;;;2.90;;
7316;SDS011;3699;51.462;6.696;2022-12-31T15:03:35;6.17;;;2.37;;
7316;SDS011;3699;51.462;6.696;2022-12-31T15:09:13;5.27;;;2.53;;
7316;SDS011;3699;51.462;6.696;2022-12-31T15:11:55;6.10;;;2.40;;
7316;SDS011;3699;51.462;6.696;2022-12-31T15:14:53;5.63;;;2.07;;
7316;SDS011;3699;51.462;6.696;2022-12-31T15:17:41;6.30;;;2.67;;
7316;SDS011;3699;51.462;6.696;2022-12-31T15:20:26;7.63;;;2.17;;
7316;SDS011;3699;51.462;6.696;2022-12-31T15:23:11;4.83;;;2.50;;
7316;SDS011;3699;51.462;6.696;2022-12-31T15:25:46;8.07;;;2.87;;
7316;SDS011;3699;51.462;6.696;2022-12-31T15:28:31;6.23;;;2.77;;
7316;SDS011;3699;51.462;6.696;2022-12-31T15:31:01;3.07;;;2.20;;
7316;SDS011;3699;51.462;6.696;2022-12-31T15:33:31;3.47;;;2.20;;
7316;SDS011;3699;51.462;6.696;2022-12-31T15:36:09;3.93;;;2.03;;
7316;SDS011;3699;51.462;6.696;2022-12-31T15:38:39;4.77;;;2.30;;
7316;SDS011;3699;51.462;6.696;2022-12-31T15:41:15;3.20;;;2.10;;
7316;SDS011;3699;51.462;6.696;2022-12-31T15:43:53;9.23;;;2.43;;
7316;SDS011;3699;51.462;6.696;2022-12-31T15:46:24;6.93;;;2.77;;
7316;SDS011;3699;51.462;6.696;2022-12-31T15:48:54;4.03;;;2.60;;
7316;SDS011;3699;51.462;6.696;2022-12-31T15:51:26;9.63;;;3.10;;
7316;SDS011;3699;51.462;6.696;2022-12-31T15:53:55;7.60;;;2.53;;
7316;SDS011;3699;51.462;6.696;2022-12-31T15:56:29;5.20;;;2.77;;
7316;SDS011;3699;51.462;6.696;2022-12-31T15:58:58;4.80;;;2.70;;
7316;SDS011;3699;51.462;6.696;2022-12-31T16:01:29;5.50;;;2.30;;
7316;SDS011;3699;51.462;6.696;2022-12-31T16:03:59;7.00;;;2.73;;
7316;SDS011;3699;51.462;6.696;2022-12-31T16:06:30;7.77;;;2.73;;
7316;SDS011;3699;51.462;6.696;2022-12-31T16:09:00;3.33;;;2.23;;
7316;SDS011;3699;51.462;6.696;2022-12-31T16:11:28;7.00;;;2.73;;
7316;SDS011;3699;51.462;6.696;2022-12-31T16:14:00;5.70;;;2.40;;
7316;SDS011;3699;51.462;6.696;2022-12-31T16:16:27;3.57;;;3.13;;
7316;SDS011;3699;51.462;6.696;2022-12-31T16:18:56;3.83;;;2.30;;
7316;SDS011;3699;51.462;6.696;2022-12-31T16:21:25;6.13;;;3.10;;
7316;SDS011;3699;51.462;6.696;2022-12-31T16:23:58;5.13;;;2.53;;
7316;SDS011;3699;51.462;6.696;2022-12-31T16:26:29;4.43;;;2.57;;
7316;SDS011;3699;51.462;6.696;2022-12-31T16:28:59;10.87;;;3.50;;
7316;SDS011;3699;51.462;6.696;2022-12-31T16:31:28;5.27;;;2.37;;
7316;SDS011;3699;51.462;6.696;2022-12-31T16:34:05;4.70;;;2.63;;